sensor_id;sensor_type;location;lat;lon;timestamp;P1;P2;P0
47711;PMS7003;57457;51.634;5.886;2022-08-01T00:07:25;9.37;10.58;4.7
47711;PMS7003;57457;51.634;5.886;2022-08-01T00:20:45;9.13;11.13;4.59
47711;PMS7003;57457;51.634;5.886;2022-08-01T00:34:05;9.85;12.11;4.91
47711;PMS7003;57457;51.634;5.886;2022-08-01T00:47:24;11.41;12.11;5.35
47711;PMS7003;57457;51.634;5.886;2022-08-01T01:00:44;12.01;12.87;5.24
47711;PMS7003;57457;51.634;5.886;2022-08-01T01:14:03;10.93;12.76;5.13
47711;PMS7003;57457;51.634;5.886;2022-08-01T01:27:23;12.61;12.44;4.7
47711;PMS7003;57457;51.634;5.886;2022-08-01T01:40:43;6.97;9.38;3.71
47711;PMS7003;57457;51.634;5.886;2022-08-01T01:54:02;9.97;10.36;4.15
47711;PMS7003;57457;51.634;5.886;2022-08-01T02:20:41;8.17;9.82;4.04
47711;PMS7003;57457;51.634;5.886;2022-08-01T02:34:01;8.65;10.58;4.04
47711;PMS7003;57457;51.634;5.886;2022-08-01T02:47:21;8.77;9.17;3.82
47711;PMS7003;57457;51.634;5.886;2022-08-01T03:00:40;7.81;9.6;4.04
47711;PMS7003;57457;51.634;5.886;2022-08-01T03:14:00;7.45;9.71;3.93
47711;PMS7003;57457;51.634;5.886;2022-08-01T03:27:19;9.13;9.49;3.93
47711;PMS7003;57457;51.634;5.886;2022-08-01T03:40:39;6.97;9.27;4.15
47711;PMS7003;57457;51.634;5.886;2022-08-01T04:07:18;12.01;11.89;5.13
47711;PMS7003;57457;51.634;5.886;2022-08-01T04:20:38;11.17;13.2;5.46
47711;PMS7003;57457;51.634;5.886;2022-08-01T04:33:57;9.13;11.13;4.37
47711;PMS7003;57457;51.634;5.886;2022-08-01T04:47:17;9.37;11.45;5.02
47711;PMS7003;57457;51.634;5.886;2022-08-01T05:00:37;10.93;11.24;4.8
47711;PMS7003;57457;51.634;5.886;2022-08-01T05:27:16;12.73;10.91;4.15
47711;PMS7003;57457;51.634;5.886;2022-08-01T06:20:34;10.93;12.76;5.35
47711;PMS7003;57457;51.634;5.886;2022-08-01T06:33:54;12.85;13.31;4.7
47711;PMS7003;57457;51.634;5.886;2022-08-01T06:47:14;11.41;12.87;4.91
47711;PMS7003;57457;51.634;5.886;2022-08-01T07:00:33;10.93;12.54;4.7
47711;PMS7003;57457;51.634;5.886;2022-08-01T07:13:53;10.93;11.35;4.7
47711;PMS7003;57457;51.634;5.886;2022-08-01T07:27:12;15.61;14.07;6.0
47711;PMS7003;57457;51.634;5.886;2022-08-01T07:40:32;8.65;10.47;4.37
47711;PMS7003;57457;51.634;5.886;2022-08-01T07:53:52;5.05;7.31;3.17
47711;PMS7003;57457;51.634;5.886;2022-08-01T08:07:11;1.56;4.59;2.08
47711;PMS7003;57457;51.634;5.886;2022-08-01T08:20:31;2.28;5.13;2.19
47711;PMS7003;57457;51.634;5.886;2022-08-01T08:33:51;3.6;6.44;2.84
47711;PMS7003;57457;51.634;5.886;2022-08-01T09:00:30;0.01;2.41;
47711;PMS7003;57457;51.634;5.886;2022-08-01T09:13:50;0.01;1.86;1.21
47711;PMS7003;57457;51.634;5.886;2022-08-01T09:40:29;0.01;1.43;
47711;PMS7003;57457;51.634;5.886;2022-08-01T10:07:08;0.01;1.32;
47711;PMS7003;57457;51.634;5.886;2022-08-01T10:20:28;0.01;1.64;
47711;PMS7003;57457;51.634;5.886;2022-08-01T10:47:07;0.01;1.21;
47711;PMS7003;57457;51.634;5.886;2022-08-01T11:00:27;0.01;1.64;1.21
47711;PMS7003;57457;51.634;5.886;2022-08-01T11:13:46;0.24;1.86;
47711;PMS7003;57457;51.634;5.886;2022-08-01T11:27:06;0.01;1.43;
47711;PMS7003;57457;51.634;5.886;2022-08-01T11:40:25;0.01;1.43;
47711;PMS7003;57457;51.634;5.886;2022-08-01T11:53:45;0.01;1.32;
47711;PMS7003;57457;51.634;5.886;2022-08-01T12:07:05;0.01;1.43;
47711;PMS7003;57457;51.634;5.886;2022-08-01T12:33:44;0.01;1.21;
47711;PMS7003;57457;51.634;5.886;2022-08-01T12:47:04;0.01;1.54;
47711;PMS7003;57457;51.634;5.886;2022-08-01T13:00:23;0.01;1.43;
47711;PMS7003;57457;51.634;5.886;2022-08-01T13:27:02;0.01;2.3;1.21
47711;PMS7003;57457;51.634;5.886;2022-08-01T13:40:22;0.01;2.08;1.32
47711;PMS7003;57457;51.634;5.886;2022-08-01T14:07:01;0.01;2.41;1.32
47711;PMS7003;57457;51.634;5.886;2022-08-01T14:20:21;0.01;2.41;1.43
47711;PMS7003;57457;51.634;5.886;2022-08-01T14:33:41;0.01;2.19;1.32
47711;PMS7003;57457;51.634;5.886;2022-08-01T15:00:20;0.01;2.3;1.32
47711;PMS7003;57457;51.634;5.886;2022-08-01T15:13:39;1.56;2.19;1.21
47711;PMS7003;57457;51.634;5.886;2022-08-01T15:26:59;2.04;2.3;1.21
47711;PMS7003;57457;51.634;5.886;2022-08-01T15:40:19;0.01;2.41;1.54
47711;PMS7003;57457;51.634;5.886;2022-08-01T15:53:38;0.12;2.3;1.32
47711;PMS7003;57457;51.634;5.886;2022-08-01T16:06:58;0.48;2.08;1.43
47711;PMS7003;57457;51.634;5.886;2022-08-01T16:33:37;2.28;4.04;1.86
47711;PMS7003;57457;51.634;5.886;2022-08-01T16:46:57;2.88;2.62;1.21
47711;PMS7003;57457;51.634;5.886;2022-08-01T17:00:17;0.36;2.41;1.54
47711;PMS7003;57457;51.634;5.886;2022-08-01T17:13:36;0.01;2.41;
47711;PMS7003;57457;51.634;5.886;2022-08-01T17:26:56;0.6;1.64;
47711;PMS7003;57457;51.634;5.886;2022-08-01T17:40:15;0.01;1.86;
47711;PMS7003;57457;51.634;5.886;2022-08-01T17:53:35;0.01;1.97;1.21
47711;PMS7003;57457;51.634;5.886;2022-08-01T18:06:54;0.01;2.19;1.21
47711;PMS7003;57457;51.634;5.886;2022-08-01T18:20:14;0.01;1.75;1.32
47711;PMS7003;57457;51.634;5.886;2022-08-01T18:33:34;0.01;1.64;
47711;PMS7003;57457;51.634;5.886;2022-08-01T18:46:53;0.01;1.64;
47711;PMS7003;57457;51.634;5.886;2022-08-01T19:00:13;0.01;1.75;
47711;PMS7003;57457;51.634;5.886;2022-08-01T19:13:32;2.88;1.43;
47711;PMS7003;57457;51.634;5.886;2022-08-01T19:26:52;0.01;1.86;1.21
47711;PMS7003;57457;51.634;5.886;2022-08-01T19:40:12;0.01;1.86;
47711;PMS7003;57457;51.634;5.886;2022-08-01T19:53:31;0.36;2.08;1.21
47711;PMS7003;57457;51.634;5.886;2022-08-01T20:20:10;0.01;2.62;1.43
47711;PMS7003;57457;51.634;5.886;2022-08-01T20:33:30;0.01;2.73;1.43
47711;PMS7003;57457;51.634;5.886;2022-08-01T20:46:50;0.01;2.73;1.54
47711;PMS7003;57457;51.634;5.886;2022-08-01T21:00:09;1.68;3.61;1.86
47711;PMS7003;57457;51.634;5.886;2022-08-01T21:13:29;2.28;4.59;2.3
47711;PMS7003;57457;51.634;5.886;2022-08-01T21:26:49;1.08;4.26;2.08
47711;PMS7003;57457;51.634;5.886;2022-08-01T21:40:08;1.92;4.91;2.3
47711;PMS7003;57457;51.634;5.886;2022-08-01T21:53:28;2.04;4.7;2.41
47711;PMS7003;57457;51.634;5.886;2022-08-01T22:06:47;3.24;5.13;2.3
47711;PMS7003;57457;51.634;5.886;2022-08-01T22:20:07;3.73;4.91;2.62
47711;PMS7003;57457;51.634;5.886;2022-08-01T22:33:27;1.68;4.8;2.62
47711;PMS7003;57457;51.634;5.886;2022-08-01T22:46:46;2.16;5.02;2.52
47711;PMS7003;57457;51.634;5.886;2022-08-01T23:00:06;3.0;6.0;3.06
47711;PMS7003;57457;51.634;5.886;2022-08-01T23:13:25;3.0;5.68;2.95
47711;PMS7003;57457;51.634;5.886;2022-08-01T23:26:45;3.48;6.11;2.84
47711;PMS7003;57457;51.634;5.886;2022-08-01T23:40:05;2.76;5.57;2.73
47711;PMS7003;57457;51.634;5.886;2022-08-01T23:53:24;2.76;5.68;3.17
